ENY223 KABQ-KLAX
Flight info
| Callsign | ENY223 |
|---|---|
| Flight time | N/A |
| Altitude | 38000 |
| Route | RDRNR3 ZUN J6 DRK HIPPI GABBL HLYWD1 |
| Aircraft | CRJ7/M-SDFGIRWY/S |
Departure
| Time | N/A |
|---|---|
| Airport | Albuquerque International Sunport (KABQ) |
Arrival
| Time | 2026-05-04 18:19 |
|---|---|
| Airport | Los Angeles International Airport (KLAX) |
| Time | Latitude | Longitude | Altitude | Speed | Heading |
|---|---|---|---|---|---|
| 2026-05-04 17:44 | 34.27993 | -115.15397 | 32896 ft | 353 kts | 251° |
| 2026-05-04 17:44 | 34.27389 | -115.18142 | 32898 ft | 352 kts | 251° |
| 2026-05-04 17:45 | 34.26133 | -115.23877 | 32890 ft | 352 kts | 251° |
| 2026-05-04 17:45 | 34.24910 | -115.29571 | 32892 ft | 351 kts | 252° |
| 2026-05-04 17:46 | 34.23695 | -115.35297 | 32908 ft | 351 kts | 251° |
| 2026-05-04 17:46 | 34.22486 | -115.41012 | 32900 ft | 351 kts | 251° |
| 2026-05-04 17:47 | 34.21267 | -115.46721 | 32890 ft | 351 kts | 251° |
| 2026-05-04 17:47 | 34.20077 | -115.52239 | 32866 ft | 349 kts | 251° |
| 2026-05-04 17:48 | 34.18862 | -115.57890 | 32917 ft | 350 kts | 251° |
| 2026-05-04 17:48 | 34.17636 | -115.63580 | 32917 ft | 351 kts | 251° |
| 2026-05-04 17:49 | 34.16520 | -115.69364 | 32950 ft | 357 kts | 254° |
| 2026-05-04 17:49 | 34.15797 | -115.75350 | 32950 ft | 362 kts | 256° |
| 2026-05-04 17:50 | 34.15204 | -115.81399 | 32935 ft | 363 kts | 256° |
| 2026-05-04 17:50 | 34.14636 | -115.87253 | 32920 ft | 363 kts | 257° |
| 2026-05-04 17:51 | 34.14053 | -115.93291 | 32876 ft | 359 kts | 256° |
| 2026-05-04 17:51 | 34.13761 | -115.96288 | 32667 ft | 361 kts | 256° |
| 2026-05-04 17:51 | 34.13478 | -115.99296 | 32331 ft | 361 kts | 256° |
| 2026-05-04 17:52 | 34.13191 | -116.02320 | 31957 ft | 363 kts | 256° |
| 2026-05-04 17:52 | 34.12914 | -116.05314 | 31579 ft | 364 kts | 256° |
| 2026-05-04 17:52 | 34.12625 | -116.08362 | 31189 ft | 366 kts | 256° |
| 2026-05-04 17:52 | 34.12327 | -116.11421 | 30794 ft | 368 kts | 256° |
| 2026-05-04 17:53 | 34.12017 | -116.14487 | 30407 ft | 368 kts | 256° |
| 2026-05-04 17:53 | 34.11714 | -116.17552 | 30023 ft | 367 kts | 256° |
| 2026-05-04 17:53 | 34.11432 | -116.20446 | 29648 ft | 365 kts | 256° |
| 2026-05-04 17:53 | 34.11135 | -116.23473 | 29194 ft | 360 kts | 256° |
| 2026-05-04 17:54 | 34.10844 | -116.26453 | 28659 ft | 355 kts | 256° |
| 2026-05-04 17:54 | 34.10553 | -116.29354 | 28217 ft | 351 kts | 256° |
| 2026-05-04 17:54 | 34.10264 | -116.32260 | 27778 ft | 347 kts | 256° |
| 2026-05-04 17:54 | 34.09957 | -116.35121 | 27315 ft | 340 kts | 256° |
| 2026-05-04 17:55 | 34.09658 | -116.37922 | 26897 ft | 334 kts | 256° |
| 2026-05-04 17:55 | 34.09361 | -116.40686 | 26476 ft | 329 kts | 256° |
| 2026-05-04 17:55 | 34.09075 | -116.43403 | 26063 ft | 324 kts | 256° |
| 2026-05-04 17:55 | 34.08792 | -116.46087 | 25649 ft | 320 kts | 256° |
| 2026-05-04 17:56 | 34.08509 | -116.48737 | 25275 ft | 317 kts | 256° |
| 2026-05-04 17:56 | 34.08226 | -116.51361 | 24878 ft | 314 kts | 256° |
| 2026-05-04 17:56 | 34.07947 | -116.53925 | 24494 ft | 312 kts | 256° |
| 2026-05-04 17:56 | 34.07683 | -116.56388 | 24126 ft | 310 kts | 257° |
| 2026-05-04 17:57 | 34.07403 | -116.58960 | 23747 ft | 309 kts | 256° |
| 2026-05-04 17:57 | 34.07122 | -116.61529 | 23351 ft | 309 kts | 257° |
| 2026-05-04 17:57 | 34.06848 | -116.64097 | 22911 ft | 308 kts | 257° |
| 2026-05-04 17:57 | 34.06593 | -116.66659 | 22475 ft | 308 kts | 258° |
| 2026-05-04 17:58 | 34.06355 | -116.69230 | 22052 ft | 308 kts | 258° |
| 2026-05-04 17:58 | 34.06112 | -116.71767 | 21646 ft | 308 kts | 258° |
| 2026-05-04 17:58 | 34.05867 | -116.74340 | 21243 ft | 308 kts | 259° |
| 2026-05-04 17:58 | 34.05629 | -116.76916 | 20896 ft | 309 kts | 259° |
| 2026-05-04 17:59 | 34.05387 | -116.79492 | 20521 ft | 310 kts | 259° |
| 2026-05-04 17:59 | 34.05140 | -116.82083 | 20130 ft | 310 kts | 259° |
| 2026-05-04 17:59 | 34.04648 | -116.87250 | 19369 ft | 310 kts | 259° |
| 2026-05-04 18:00 | 34.04405 | -116.89752 | 19018 ft | 310 kts | 259° |
| 2026-05-04 18:00 | 34.04127 | -116.92247 | 18680 ft | 309 kts | 258° |
| 2026-05-04 18:00 | 34.03800 | -116.94799 | 18307 ft | 307 kts | 258° |
| 2026-05-04 18:00 | 34.03471 | -116.97335 | 17934 ft | 305 kts | 258° |
| 2026-05-04 18:01 | 34.03145 | -116.99850 | 17591 ft | 302 kts | 258° |
| 2026-05-04 18:01 | 34.02820 | -117.02347 | 17221 ft | 301 kts | 258° |
| 2026-05-04 18:01 | 34.02500 | -117.04829 | 16863 ft | 299 kts | 258° |
| 2026-05-04 18:02 | 34.01868 | -117.09740 | 16217 ft | 294 kts | 258° |
| 2026-05-04 18:02 | 34.01571 | -117.12173 | 15885 ft | 292 kts | 258° |
| 2026-05-04 18:02 | 34.01280 | -117.14586 | 15586 ft | 290 kts | 259° |
| 2026-05-04 18:02 | 34.00993 | -117.16978 | 15289 ft | 286 kts | 259° |
| 2026-05-04 18:03 | 34.00715 | -117.19307 | 15086 ft | 282 kts | 259° |
| 2026-05-04 18:03 | 34.00436 | -117.21636 | 14808 ft | 279 kts | 259° |
| 2026-05-04 18:03 | 34.00156 | -117.23944 | 14554 ft | 278 kts | 259° |
| 2026-05-04 18:03 | 33.99908 | -117.26060 | 14226 ft | 276 kts | 259° |
| 2026-05-04 18:04 | 33.99632 | -117.28353 | 13934 ft | 276 kts | 259° |
| 2026-05-04 18:04 | 33.99353 | -117.30634 | 13639 ft | 276 kts | 259° |
| 2026-05-04 18:04 | 33.98827 | -117.35114 | 13136 ft | 275 kts | 259° |
| 2026-05-04 18:05 | 33.98560 | -117.37396 | 12843 ft | 275 kts | 259° |
| 2026-05-04 18:05 | 33.98289 | -117.39679 | 12574 ft | 275 kts | 260° |
| 2026-05-04 18:05 | 33.98019 | -117.41954 | 12323 ft | 274 kts | 260° |
| 2026-05-04 18:05 | 33.97753 | -117.44216 | 12065 ft | 272 kts | 259° |
| 2026-05-04 18:06 | 33.97272 | -117.48723 | 11576 ft | 271 kts | 268° |
| 2026-05-04 18:06 | 33.97491 | -117.50986 | 11342 ft | 273 kts | 278° |
| 2026-05-04 18:06 | 33.97899 | -117.53227 | 11130 ft | 274 kts | 281° |
| 2026-05-04 18:07 | 33.98350 | -117.55463 | 10944 ft | 275 kts | 281° |
| 2026-05-04 18:07 | 33.98801 | -117.57700 | 10742 ft | 275 kts | 281° |
| 2026-05-04 18:07 | 33.99198 | -117.59744 | 10522 ft | 277 kts | 280° |
| 2026-05-04 18:07 | 33.99594 | -117.61922 | 10266 ft | 278 kts | 280° |
| 2026-05-04 18:08 | 34.00000 | -117.64201 | 9992 ft | 279 kts | 280° |
| 2026-05-04 18:08 | 34.00410 | -117.66489 | 9668 ft | 279 kts | 280° |
| 2026-05-04 18:08 | 34.00708 | -117.68790 | 9348 ft | 277 kts | 269° |
| 2026-05-04 18:08 | 34.00580 | -117.71093 | 9036 ft | 274 kts | 262° |
| 2026-05-04 18:09 | 34.00056 | -117.75591 | 8414 ft | 268 kts | 261° |
| 2026-05-04 18:09 | 33.99534 | -117.79969 | 7809 ft | 257 kts | 262° |
| 2026-05-04 18:10 | 33.99311 | -117.82075 | 7556 ft | 250 kts | 263° |
| 2026-05-04 18:10 | 33.99112 | -117.84136 | 7287 ft | 245 kts | 263° |
| 2026-05-04 18:10 | 33.98922 | -117.86137 | 7044 ft | 242 kts | 263° |
| 2026-05-04 18:10 | 33.98734 | -117.88050 | 6801 ft | 239 kts | 263° |
| 2026-05-04 18:11 | 33.98539 | -117.90034 | 6546 ft | 238 kts | 263° |
| 2026-05-04 18:11 | 33.98346 | -117.92019 | 6291 ft | 238 kts | 264° |
| 2026-05-04 18:11 | 33.98155 | -117.94003 | 6028 ft | 239 kts | 263° |
| 2026-05-04 18:11 | 33.97972 | -117.95852 | 5792 ft | 237 kts | 263° |
| 2026-05-04 18:12 | 33.97776 | -117.97816 | 5551 ft | 235 kts | 263° |
| 2026-05-04 18:12 | 33.97585 | -117.99760 | 5312 ft | 232 kts | 263° |
| 2026-05-04 18:12 | 33.97409 | -118.01684 | 5075 ft | 230 kts | 264° |
| 2026-05-04 18:12 | 33.97250 | -118.03586 | 4839 ft | 228 kts | 264° |
| 2026-05-04 18:13 | 33.97094 | -118.05473 | 4587 ft | 224 kts | 264° |
| 2026-05-04 18:13 | 33.96935 | -118.07305 | 4333 ft | 222 kts | 264° |
| 2026-05-04 18:13 | 33.96575 | -118.10987 | 3863 ft | 220 kts | 262° |
| 2026-05-04 18:14 | 33.96384 | -118.12811 | 3635 ft | 218 kts | 262° |
| 2026-05-04 18:14 | 33.96188 | -118.14610 | 3427 ft | 214 kts | 262° |
| 2026-05-04 18:14 | 33.96001 | -118.16371 | 3242 ft | 209 kts | 262° |
| 2026-05-04 18:15 | 33.95640 | -118.19733 | 2899 ft | 194 kts | 261° |
| 2026-05-04 18:15 | 33.95326 | -118.22828 | 2538 ft | 183 kts | 261° |
| 2026-05-04 18:15 | 33.95167 | -118.24325 | 2353 ft | 174 kts | 262° |
| 2026-05-04 18:16 | 33.95021 | -118.25754 | 2176 ft | 172 kts | 262° |
| 2026-05-04 18:16 | 33.94876 | -118.27194 | 1956 ft | 172 kts | 262° |
| 2026-05-04 18:16 | 33.94743 | -118.28573 | 1730 ft | 158 kts | 261° |
| 2026-05-04 18:17 | 33.94505 | -118.30820 | 1348 ft | 123 kts | 261° |
| 2026-05-04 18:17 | 33.94407 | -118.31811 | 1200 ft | 120 kts | 262° |
| 2026-05-04 18:17 | 33.94180 | -118.33939 | 898 ft | 128 kts | 262° |
| 2026-05-04 18:18 | 33.94074 | -118.34963 | 702 ft | 122 kts | 262° |
| 2026-05-04 18:18 | 33.93973 | -118.35982 | 508 ft | 124 kts | 259° |
| 2026-05-04 18:18 | 33.93882 | -118.37053 | 337 ft | 133 kts | 261° |
| 2026-05-04 18:18 | 33.93760 | -118.38073 | 202 ft | 119 kts | 260° |
| 2026-05-04 18:19 | 33.93590 | -118.39719 | 109 ft | 58 kts | 263° |
| 2026-05-04 18:19 | 33.93560 | -118.40032 | 111 ft | 22 kts | 265° |
| 2026-05-04 18:19 | 33.93572 | -118.40186 | 110 ft | 13 kts | 282° |
| 2026-05-04 18:20 | 33.93594 | -118.40269 | 108 ft | 9 kts | 289° |
| 2026-05-04 18:20 | 33.93606 | -118.40304 | 107 ft | 6 kts | 293° |
| 2026-05-04 18:20 | 33.93620 | -118.40352 | 105 ft | 7 kts | 283° |
| 2026-05-04 18:20 | 33.93625 | -118.40377 | 105 ft | 4 kts | 282° |